PWSweather.com
Personal Weather Stations
Station Observations
IFREISTO2
Freiston, FreistonGB PE22 0QJ

FreistonFreistonGB PE22 0QJ

Lat: 52.964, Lon: 0.041

Elevation: 16

Station Type: Fine Offset

http://www.midlifedad.me.uk/weather

Latest ConditionsUpdated 2:20:00 PM GMT Friday, Jul 20, 2018
Currently Today's Max Today's Min Today's Average
Temperature 85.5°F29.7°C 88.3°F31.3°C 54.1°F12.3°C 67.2°F19.6°C
Dew Point 54.7°F12.6°C 59.9°F15.5°C 45.5°F7.5°C 51.8°F11.0°C
Winds 3.0 mph S4.8 kmh S 5.3 mph -8.5 kmh - - 2.2 mph 3.5 kmh
Wind Gusts 9.8 mph15.8 kmh 11.4 mph18.3 kmh - -
Humidity 35% 81% 32% 61%
Pressure 29.89 in1012.2 mb 30.02 in1016.6 mb 29.89 in1012.2 mb -
Hour Temp Dew Point Humidity Winds Wind Gusts Pressure Precip Precip Rate Daily Precip Total
02:20 PM 85.5°F29.7°C 54.7°F12.6°C 35% 3.0 mph S4.8 kmh S 9.8 mph15.8 kmh 29.89 in1012.2 mb 0.00 in0.0 mm 0.00 in0.0 mm 0.00 in0.0 mm
02:15 PM 85.5°F29.7°C 53.9°F12.2°C 34% 3.3 mph SW5.3 kmh SW 9.2 mph14.8 kmh 29.89 in1012.2 mb 0.00 in0.0 mm 0.00 in0.0 mm 0.00 in0.0 mm
02:10 PM 86.2°F30.1°C 53.7°F12.1°C 33% 5.0 mph WSW8.0 kmh WSW 9.8 mph15.8 kmh 29.89 in1012.2 mb 0.00 in0.0 mm 0.00 in0.0 mm 0.00 in0.0 mm
02:05 PM 87.6°F30.9°C 55.0°F12.8°C 33% 3.6 mph SW5.8 kmh SW 9.8 mph15.8 kmh 29.90 in1012.5 mb 0.00 in0.0 mm 0.00 in0.0 mm 0.00 in0.0 mm
02:00 PM 88.3°F31.3°C 55.6°F13.1°C 33% 2.6 mph SSW4.2 kmh SSW 8.3 mph13.4 kmh 29.90 in1012.5 mb 0.00 in0.0 mm 0.00 in0.0 mm 0.00 in0.0 mm
01:55 PM 88.2°F31.2°C 54.6°F12.6°C 32% 2.8 mph SSW4.5 kmh SSW 6.9 mph11.1 kmh 29.90 in1012.5 mb 0.00 in0.0 mm 0.00 in0.0 mm 0.00 in0.0 mm
01:50 PM 87.8°F31.0°C 55.1°F12.8°C 33% 2.2 mph SSE3.5 kmh SSE 6.0 mph9.7 kmh 29.90 in1012.5 mb 0.00 in0.0 mm 0.00 in0.0 mm 0.00 in0.0 mm
01:45 PM 86.5°F30.3°C 54.8°F12.7°C 34% 2.6 mph WSW4.2 kmh WSW 6.9 mph11.1 kmh 29.90 in1012.5 mb 0.00 in0.0 mm 0.00 in0.0 mm 0.00 in0.0 mm
01:40 PM 86.0°F30.0°C 54.4°F12.4°C 34% 3.2 mph W5.1 kmh W 6.9 mph11.1 kmh 29.91 in1012.9 mb 0.00 in0.0 mm 0.00 in0.0 mm 0.00 in0.0 mm
01:35 PM 86.5°F30.3°C 54.8°F12.7°C 34% 2.6 mph S4.2 kmh S 6.9 mph11.1 kmh 29.91 in1012.9 mb 0.00 in0.0 mm 0.00 in0.0 mm 0.00 in0.0 mm
01:30 PM 86.0°F30.0°C 55.2°F12.9°C 35% 2.1 mph S3.4 kmh S 9.2 mph14.8 kmh 29.91 in1012.9 mb 0.00 in0.0 mm 0.00 in0.0 mm 0.00 in0.0 mm
01:25 PM 85.5°F29.7°C 55.5°F13.1°C 36% 2.3 mph WSW3.7 kmh WSW 9.2 mph14.8 kmh 29.91 in1012.9 mb 0.00 in0.0 mm 0.00 in0.0 mm 0.00 in0.0 mm
01:20 PM 87.1°F30.6°C 55.3°F12.9°C 34% 3.0 mph WSW4.8 kmh WSW 9.2 mph14.8 kmh 29.91 in1012.9 mb 0.00 in0.0 mm 0.00 in0.0 mm 0.00 in0.0 mm
01:15 PM 86.9°F30.5°C 55.2°F12.9°C 34% 3.9 mph SE6.3 kmh SE 8.3 mph13.4 kmh 29.91 in1012.9 mb 0.00 in0.0 mm 0.00 in0.0 mm 0.00 in0.0 mm
01:10 PM 86.4°F30.2°C 57.8°F14.3°C 38% 4.0 mph E6.4 kmh E 8.3 mph13.4 kmh 29.91 in1012.9 mb 0.00 in0.0 mm 0.00 in0.0 mm 0.00 in0.0 mm
01:05 PM 83.7°F28.7°C 56.1°F13.4°C 39% 3.9 mph ESE6.3 kmh ESE 7.6 mph12.2 kmh 29.91 in1012.9 mb 0.00 in0.0 mm 0.00 in0.0 mm 0.00 in0.0 mm
01:00 PM 82.0°F27.8°C 55.3°F12.9°C 40% 3.0 mph SE4.8 kmh SE 7.6 mph12.2 kmh 29.91 in1012.9 mb 0.00 in0.0 mm 0.00 in0.0 mm 0.00 in0.0 mm
12:55 PM 82.0°F27.8°C 54.6°F12.6°C 39% 2.5 mph WSW4.0 kmh WSW 6.0 mph9.7 kmh 29.91 in1012.9 mb 0.00 in0.0 mm 0.00 in0.0 mm 0.00 in0.0 mm
12:50 PM 82.2°F27.9°C 54.1°F12.3°C 38% 3.8 mph WSW6.1 kmh WSW 11.4 mph18.3 kmh 29.92 in1013.2 mb 0.00 in0.0 mm 0.00 in0.0 mm 0.00 in0.0 mm
12:45 PM 83.7°F28.7°C 54.6°F12.6°C 37% 3.9 mph SSW6.3 kmh SSW 11.4 mph18.3 kmh 29.92 in1013.2 mb 0.00 in0.0 mm 0.00 in0.0 mm 0.00 in0.0 mm
12:40 PM 88.2°F31.2°C 56.3°F13.5°C 34% 4.0 mph E6.4 kmh E 9.2 mph14.8 kmh 29.92 in1013.2 mb 0.00 in0.0 mm 0.00 in0.0 mm 0.00 in0.0 mm
12:35 PM 88.2°F31.2°C 58.6°F14.8°C 37% 3.3 mph E5.3 kmh E 9.2 mph14.8 kmh 29.92 in1013.2 mb 0.00 in0.0 mm 0.00 in0.0 mm 0.00 in0.0 mm
12:30 PM 87.1°F30.6°C 57.7°F14.3°C 37% 2.5 mph E4.0 kmh E 7.6 mph12.2 kmh 29.92 in1013.2 mb 0.00 in0.0 mm 0.00 in0.0 mm 0.00 in0.0 mm
12:25 PM 88.3°F31.3°C 57.2°F14.0°C 35% 3.0 mph E4.8 kmh E 8.3 mph13.4 kmh 29.92 in1013.2 mb 0.00 in0.0 mm 0.00 in0.0 mm 0.00 in0.0 mm
12:20 PM 88.3°F31.3°C 57.2°F14.0°C 35% 3.2 mph ESE5.1 kmh ESE 9.8 mph15.8 kmh 29.92 in1013.2 mb 0.00 in0.0 mm 0.00 in0.0 mm 0.00 in0.0 mm
12:15 PM 87.8°F31.0°C 58.3°F14.6°C 37% 3.0 mph ESE4.8 kmh ESE 9.8 mph15.8 kmh 29.92 in1013.2 mb 0.00 in0.0 mm 0.00 in0.0 mm 0.00 in0.0 mm
12:10 PM 87.4°F30.8°C 58.0°F14.4°C 37% 3.0 mph ESE4.8 kmh ESE 7.6 mph12.2 kmh 29.92 in1013.2 mb 0.00 in0.0 mm 0.00 in0.0 mm 0.00 in0.0 mm
12:05 PM 88.2°F31.2°C 57.8°F14.3°C 36% 4.2 mph ESE6.8 kmh ESE 10.7 mph17.2 kmh 29.93 in1013.5 mb 0.00 in0.0 mm 0.00 in0.0 mm 0.00 in0.0 mm
12:00 PM 87.3°F30.7°C 59.3°F15.2°C 39% 5.3 mph ESE8.5 kmh ESE 10.7 mph17.2 kmh 29.93 in1013.5 mb 0.00 in0.0 mm 0.00 in0.0 mm 0.00 in0.0 mm
11:55 AM 84.9°F29.4°C 59.9°F15.5°C 43% 4.6 mph ESE7.4 kmh ESE 9.8 mph15.8 kmh 29.93 in1013.5 mb 0.00 in0.0 mm 0.00 in0.0 mm 0.00 in0.0 mm
11:50 AM 84.0°F28.9°C 57.1°F13.9°C 40% 3.4 mph SW5.5 kmh SW 8.3 mph13.4 kmh 29.93 in1013.5 mb 0.00 in0.0 mm 0.00 in0.0 mm 0.00 in0.0 mm
11:45 AM 83.7°F28.7°C 55.4°F13.0°C 38% 3.4 mph WSW5.5 kmh WSW 7.6 mph12.2 kmh 29.93 in1013.5 mb 0.00 in0.0 mm 0.00 in0.0 mm 0.00 in0.0 mm
11:40 AM 84.9°F29.4°C 55.7°F13.2°C 37% 2.7 mph W4.3 kmh W 7.6 mph12.2 kmh 29.93 in1013.5 mb 0.00 in0.0 mm 0.00 in0.0 mm 0.00 in0.0 mm
11:35 AM 85.3°F29.6°C 56.8°F13.8°C 38% 2.7 mph SW4.3 kmh SW 6.9 mph11.1 kmh 29.94 in1013.9 mb 0.00 in0.0 mm 0.00 in0.0 mm 0.00 in0.0 mm
11:30 AM 83.3°F28.5°C 56.5°F13.6°C 40% 3.2 mph SSE5.1 kmh SSE 6.9 mph11.1 kmh 29.93 in1013.5 mb 0.00 in0.0 mm 0.00 in0.0 mm 0.00 in0.0 mm
11:25 AM 83.7°F28.7°C 58.1°F14.5°C 42% 3.0 mph SE4.8 kmh SE 7.6 mph12.2 kmh 29.94 in1013.9 mb 0.00 in0.0 mm 0.00 in0.0 mm 0.00 in0.0 mm
11:20 AM 84.0°F28.9°C 56.4°F13.6°C 39% 2.4 mph E3.9 kmh E 7.6 mph12.2 kmh 29.94 in1013.9 mb 0.00 in0.0 mm 0.00 in0.0 mm 0.00 in0.0 mm
11:15 AM 83.5°F28.6°C 56.6°F13.7°C 40% 1.8 mph SE2.9 kmh SE 4.5 mph7.2 kmh 29.94 in1013.9 mb 0.00 in0.0 mm 0.00 in0.0 mm 0.00 in0.0 mm
11:10 AM 81.7°F27.6°C 55.7°F13.2°C 41% 2.1 mph SE3.4 kmh SE 6.0 mph9.7 kmh 29.94 in1013.9 mb 0.00 in0.0 mm 0.00 in0.0 mm 0.00 in0.0 mm
11:05 AM 80.4°F26.9°C 55.9°F13.3°C 43% 1.3 mph E2.1 kmh E 6.0 mph9.7 kmh 29.94 in1013.9 mb 0.00 in0.0 mm 0.00 in0.0 mm 0.00 in0.0 mm
11:00 AM 79.7°F26.5°C 54.6°F12.6°C 42% 1.4 mph SW2.3 kmh SW 5.4 mph8.7 kmh 29.94 in1013.9 mb 0.00 in0.0 mm 0.00 in0.0 mm 0.00 in0.0 mm
10:55 AM 79.9°F26.6°C 54.7°F12.6°C 42% 2.5 mph SW4.0 kmh SW 6.9 mph11.1 kmh 29.94 in1013.9 mb 0.00 in0.0 mm 0.00 in0.0 mm 0.00 in0.0 mm
10:50 AM 81.5°F27.5°C 55.5°F13.1°C 41% 1.9 mph SSW3.1 kmh SSW 6.9 mph11.1 kmh 29.94 in1013.9 mb 0.00 in0.0 mm 0.00 in0.0 mm 0.00 in0.0 mm
10:45 AM 81.0°F27.2°C 55.0°F12.8°C 41% 1.6 mph SE2.6 kmh SE 5.4 mph8.7 kmh 29.94 in1013.9 mb 0.00 in0.0 mm 0.00 in0.0 mm 0.00 in0.0 mm
10:40 AM 82.4°F28.0°C 56.3°F13.5°C 41% 2.6 mph E4.2 kmh E 8.3 mph13.4 kmh 29.95 in1014.2 mb 0.00 in0.0 mm 0.00 in0.0 mm 0.00 in0.0 mm
10:35 AM 82.2°F27.9°C 56.2°F13.4°C 41% 2.6 mph SSE4.2 kmh SSE 8.3 mph13.4 kmh 29.94 in1013.9 mb 0.00 in0.0 mm 0.00 in0.0 mm 0.00 in0.0 mm
10:30 AM 80.2°F26.8°C 55.7°F13.2°C 43% 1.5 mph SSE2.4 kmh SSE 6.0 mph9.7 kmh 29.95 in1014.2 mb 0.00 in0.0 mm 0.00 in0.0 mm 0.00 in0.0 mm
10:25 AM 78.6°F25.9°C 54.9°F12.7°C 44% 1.8 mph SW2.9 kmh SW 6.0 mph9.7 kmh 29.95 in1014.2 mb 0.00 in0.0 mm 0.00 in0.0 mm 0.00 in0.0 mm
10:20 AM 78.3°F25.7°C 55.2°F12.9°C 45% 2.3 mph SW3.7 kmh SW 6.0 mph9.7 kmh 29.95 in1014.2 mb 0.00 in0.0 mm 0.00 in0.0 mm 0.00 in0.0 mm
10:15 AM 77.7°F25.4°C 54.7°F12.6°C 45% 1.7 mph SW2.7 kmh SW 6.0 mph9.7 kmh 29.95 in1014.2 mb 0.00 in0.0 mm 0.00 in0.0 mm 0.00 in0.0 mm
10:10 AM 77.0°F25.0°C 54.6°F12.6°C 46% 1.4 mph SW2.3 kmh SW 4.5 mph7.2 kmh 29.95 in1014.2 mb 0.00 in0.0 mm 0.00 in0.0 mm 0.00 in0.0 mm
10:05 AM 75.9°F24.4°C 54.8°F12.7°C 48% 2.1 mph SW3.4 kmh SW 6.0 mph9.7 kmh 29.95 in1014.2 mb 0.00 in0.0 mm 0.00 in0.0 mm 0.00 in0.0 mm
10:00 AM 75.2°F24.0°C 53.6°F12.0°C 47% 2.2 mph WSW3.5 kmh WSW 6.0 mph9.7 kmh 29.95 in1014.2 mb 0.00 in0.0 mm 0.00 in0.0 mm 0.00 in0.0 mm
09:55 AM 74.8°F23.8°C 54.4°F12.4°C 49% 1.6 mph SW2.6 kmh SW 5.4 mph8.7 kmh 29.95 in1014.2 mb 0.00 in0.0 mm 0.00 in0.0 mm 0.00 in0.0 mm
09:50 AM 73.9°F23.3°C 54.7°F12.6°C 51% 1.2 mph S1.9 kmh S 3.8 mph6.1 kmh 29.95 in1014.2 mb 0.00 in0.0 mm 0.00 in0.0 mm 0.00 in0.0 mm
09:45 AM 72.5°F22.5°C 53.9°F12.2°C 52% 1.3 mph SW2.1 kmh SW 4.5 mph7.2 kmh 29.95 in1014.2 mb 0.00 in0.0 mm 0.00 in0.0 mm 0.00 in0.0 mm
09:40 AM 71.4°F21.9°C 53.4°F11.9°C 53% 1.0 mph WSW1.6 kmh WSW 4.5 mph7.2 kmh 29.95 in1014.2 mb 0.00 in0.0 mm 0.00 in0.0 mm 0.00 in0.0 mm
09:35 AM 70.9°F21.6°C 53.4°F11.9°C 54% 1.2 mph SW1.9 kmh SW 4.5 mph7.2 kmh 29.95 in1014.2 mb 0.00 in0.0 mm 0.00 in0.0 mm 0.00 in0.0 mm
09:30 AM 70.5°F21.4°C 53.1°F11.7°C 54% 1.8 mph WSW2.9 kmh WSW 4.5 mph7.2 kmh 29.95 in1014.2 mb 0.00 in0.0 mm 0.00 in0.0 mm 0.00 in0.0 mm
09:25 AM 70.9°F21.6°C 53.4°F11.9°C 54% 1.9 mph W3.1 kmh W 3.8 mph6.1 kmh 29.95 in1014.2 mb 0.00 in0.0 mm 0.00 in0.0 mm 0.00 in0.0 mm
09:20 AM 71.1°F21.7°C 53.6°F12.0°C 54% 2.5 mph W4.0 kmh W 5.4 mph8.7 kmh 29.96 in1014.6 mb 0.00 in0.0 mm 0.00 in0.0 mm 0.00 in0.0 mm
09:15 AM 71.8°F22.1°C 53.7°F12.1°C 53% 2.2 mph WSW3.5 kmh WSW 5.4 mph8.7 kmh 29.95 in1014.2 mb 0.00 in0.0 mm 0.00 in0.0 mm 0.00 in0.0 mm
09:10 AM 71.8°F22.1°C 54.2°F12.3°C 54% 1.5 mph WSW2.4 kmh WSW 5.4 mph8.7 kmh 29.96 in1014.6 mb 0.00 in0.0 mm 0.00 in0.0 mm 0.00 in0.0 mm
09:05 AM 70.5°F21.4°C 54.1°F12.3°C 56% 2.0 mph WSW3.2 kmh WSW 5.4 mph8.7 kmh 29.96 in1014.6 mb 0.00 in0.0 mm 0.00 in0.0 mm 0.00 in0.0 mm
09:00 AM 69.6°F20.9°C 54.2°F12.3°C 58% 3.0 mph WSW4.8 kmh WSW 7.6 mph12.2 kmh 29.96 in1014.6 mb 0.00 in0.0 mm 0.00 in0.0 mm 0.00 in0.0 mm
08:55 AM 69.1°F20.6°C 54.1°F12.3°C 59% 3.4 mph SW5.5 kmh SW 7.6 mph12.2 kmh 29.96 in1014.6 mb 0.00 in0.0 mm 0.00 in0.0 mm 0.00 in0.0 mm
08:50 AM 68.9°F20.5°C 54.0°F12.2°C 59% 2.8 mph WSW4.5 kmh WSW 5.4 mph8.7 kmh 29.96 in1014.6 mb 0.00 in0.0 mm 0.00 in0.0 mm 0.00 in0.0 mm
08:45 AM 68.4°F20.2°C 53.9°F12.2°C 60% 2.2 mph WSW3.5 kmh WSW 5.4 mph8.7 kmh 29.96 in1014.6 mb 0.00 in0.0 mm 0.00 in0.0 mm 0.00 in0.0 mm
08:40 AM 68.0°F20.0°C 53.6°F12.0°C 60% 2.0 mph WSW3.2 kmh WSW 5.4 mph8.7 kmh 29.96 in1014.6 mb 0.00 in0.0 mm 0.00 in0.0 mm 0.00 in0.0 mm
08:35 AM 67.1°F19.5°C 53.6°F12.0°C 62% 1.9 mph SW3.1 kmh SW 3.8 mph6.1 kmh 29.96 in1014.6 mb 0.00 in0.0 mm 0.00 in0.0 mm 0.00 in0.0 mm
08:30 AM 66.6°F19.2°C 53.6°F12.0°C 63% 1.9 mph SW3.1 kmh SW 3.8 mph6.1 kmh 29.96 in1014.6 mb 0.00 in0.0 mm 0.00 in0.0 mm 0.00 in0.0 mm
08:25 AM 66.0°F18.9°C 53.5°F11.9°C 64% 1.9 mph SW3.1 kmh SW 3.8 mph6.1 kmh 29.97 in1014.9 mb 0.00 in0.0 mm 0.00 in0.0 mm 0.00 in0.0 mm
08:20 AM 65.5°F18.6°C 53.0°F11.7°C 64% 2.2 mph SW3.5 kmh SW 4.5 mph7.2 kmh 29.96 in1014.6 mb 0.00 in0.0 mm 0.00 in0.0 mm 0.00 in0.0 mm
08:15 AM 65.1°F18.4°C 52.6°F11.4°C 64% 2.4 mph WSW3.9 kmh WSW 4.5 mph7.2 kmh 29.97 in1014.9 mb 0.00 in0.0 mm 0.00 in0.0 mm 0.00 in0.0 mm
08:10 AM 64.8°F18.2°C 52.3°F11.3°C 64% 2.4 mph WSW3.9 kmh WSW 5.4 mph8.7 kmh 29.97 in1014.9 mb 0.00 in0.0 mm 0.00 in0.0 mm 0.00 in0.0 mm
08:05 AM 64.9°F18.3°C 52.5°F11.4°C 64% 2.7 mph SW4.3 kmh SW 5.4 mph8.7 kmh 29.97 in1014.9 mb 0.00 in0.0 mm 0.00 in0.0 mm 0.00 in0.0 mm
08:00 AM 65.1°F18.4°C 52.6°F11.4°C 64% 2.3 mph SW3.7 kmh SW 5.4 mph8.7 kmh 29.97 in1014.9 mb 0.00 in0.0 mm 0.00 in0.0 mm 0.00 in0.0 mm
07:55 AM 64.9°F18.3°C 52.9°F11.6°C 65% 2.3 mph WSW3.7 kmh WSW 4.5 mph7.2 kmh 29.97 in1014.9 mb 0.00 in0.0 mm 0.00 in0.0 mm 0.00 in0.0 mm
07:50 AM 64.9°F18.3°C 52.5°F11.4°C 64% 2.9 mph SW4.7 kmh SW 5.4 mph8.7 kmh 29.97 in1014.9 mb 0.00 in0.0 mm 0.00 in0.0 mm 0.00 in0.0 mm
07:45 AM 64.8°F18.2°C 52.7°F11.5°C 65% 2.9 mph SW4.7 kmh SW 6.0 mph9.7 kmh 29.97 in1014.9 mb 0.00 in0.0 mm 0.00 in0.0 mm 0.00 in0.0 mm
07:40 AM 64.2°F17.9°C 52.2°F11.2°C 65% 2.8 mph SW4.5 kmh SW 6.0 mph9.7 kmh 29.97 in1014.9 mb 0.00 in0.0 mm 0.00 in0.0 mm 0.00 in0.0 mm
07:35 AM 63.9°F17.7°C 51.9°F11.1°C 65% 3.0 mph SW4.8 kmh SW 6.0 mph9.7 kmh 29.97 in1014.9 mb 0.00 in0.0 mm 0.00 in0.0 mm 0.00 in0.0 mm
07:30 AM 63.7°F17.6°C 52.1°F11.2°C 66% 3.2 mph WSW5.1 kmh WSW 6.0 mph9.7 kmh 29.97 in1014.9 mb 0.00 in0.0 mm 0.00 in0.0 mm 0.00 in0.0 mm
07:25 AM 63.1°F17.3°C 51.6°F10.9°C 66% 3.0 mph SW4.8 kmh SW 5.4 mph8.7 kmh 29.97 in1014.9 mb 0.00 in0.0 mm 0.00 in0.0 mm 0.00 in0.0 mm
07:20 AM 63.0°F17.2°C 51.8°F11.0°C 67% 2.6 mph SW4.2 kmh SW 5.4 mph8.7 kmh 29.97 in1014.9 mb 0.00 in0.0 mm 0.00 in0.0 mm 0.00 in0.0 mm
07:15 AM 62.6°F17.0°C 51.9°F11.1°C 68% 2.6 mph SW4.2 kmh SW 5.4 mph8.7 kmh 29.97 in1014.9 mb 0.00 in0.0 mm 0.00 in0.0 mm 0.00 in0.0 mm
07:10 AM 62.4°F16.9°C 52.1°F11.2°C 69% 2.7 mph SW4.3 kmh SW 4.5 mph7.2 kmh 29.97 in1014.9 mb 0.00 in0.0 mm 0.00 in0.0 mm 0.00 in0.0 mm
07:05 AM 62.2°F16.8°C 52.3°F11.3°C 70% 2.9 mph SW4.7 kmh SW 4.5 mph7.2 kmh 29.97 in1014.9 mb 0.00 in0.0 mm 0.00 in0.0 mm 0.00 in0.0 mm
07:00 AM 61.7°F16.5°C 52.2°F11.2°C 71% 2.8 mph SW4.5 kmh SW 4.5 mph7.2 kmh 29.97 in1014.9 mb 0.00 in0.0 mm 0.00 in0.0 mm 0.00 in0.0 mm
06:55 AM 61.3°F16.3°C 51.9°F11.1°C 71% 2.5 mph SW4.0 kmh SW 4.5 mph7.2 kmh 29.97 in1014.9 mb 0.00 in0.0 mm 0.00 in0.0 mm 0.00 in0.0 mm
06:50 AM 61.2°F16.2°C 51.7°F10.9°C 71% 2.3 mph WSW3.7 kmh WSW 4.5 mph7.2 kmh 29.97 in1014.9 mb 0.00 in0.0 mm 0.00 in0.0 mm 0.00 in0.0 mm
06:45 AM 60.8°F16.0°C 51.3°F10.7°C 71% 2.2 mph SW3.5 kmh SW 4.5 mph7.2 kmh 29.97 in1014.9 mb 0.00 in0.0 mm 0.00 in0.0 mm 0.00 in0.0 mm
06:40 AM 60.6°F15.9°C 51.5°F10.8°C 72% 2.2 mph SW3.5 kmh SW 4.5 mph7.2 kmh 29.97 in1014.9 mb 0.00 in0.0 mm 0.00 in0.0 mm 0.00 in0.0 mm
06:35 AM 60.4°F15.8°C 51.7°F10.9°C 73% 2.0 mph WSW3.2 kmh WSW 4.5 mph7.2 kmh 29.97 in1014.9 mb 0.00 in0.0 mm 0.00 in0.0 mm 0.00 in0.0 mm
06:30 AM 60.1°F15.6°C 51.4°F10.8°C 73% 2.1 mph SW3.4 kmh SW 3.8 mph6.1 kmh 29.97 in1014.9 mb 0.00 in0.0 mm 0.00 in0.0 mm 0.00 in0.0 mm
06:25 AM 60.1°F15.6°C 51.4°F10.8°C 73% 2.2 mph SW3.5 kmh SW 4.5 mph7.2 kmh 29.97 in1014.9 mb 0.00 in0.0 mm 0.00 in0.0 mm 0.00 in0.0 mm
06:20 AM 60.1°F15.6°C 51.8°F11.0°C 74% 1.5 mph SW2.4 kmh SW 4.5 mph7.2 kmh 29.97 in1014.9 mb 0.00 in0.0 mm 0.00 in0.0 mm 0.00 in0.0 mm
06:15 AM 59.9°F15.5°C 51.6°F10.9°C 74% 0.8 mph SW1.3 kmh SW 3.1 mph5.0 kmh 29.97 in1014.9 mb 0.00 in0.0 mm 0.00 in0.0 mm 0.00 in0.0 mm
06:10 AM 59.4°F15.2°C 51.4°F10.8°C 75% 0.8 mph SW1.3 kmh SW 3.1 mph5.0 kmh 29.97 in1014.9 mb 0.00 in0.0 mm 0.00 in0.0 mm 0.00 in0.0 mm
06:05 AM 59.0°F15.0°C 51.1°F10.6°C 75% 1.1 mph WSW1.8 kmh WSW 3.1 mph5.0 kmh 29.98 in1015.2 mb 0.00 in0.0 mm 0.00 in0.0 mm 0.00 in0.0 mm
06:00 AM 58.6°F14.8°C 51.1°F10.6°C 76% 1.5 mph SW2.4 kmh SW 3.1 mph5.0 kmh 29.97 in1014.9 mb 0.00 in0.0 mm 0.00 in0.0 mm 0.00 in0.0 mm
05:55 AM 58.5°F14.7°C 50.9°F10.5°C 76% 2.1 mph SW3.4 kmh SW 4.5 mph7.2 kmh 29.97 in1014.9 mb 0.00 in0.0 mm 0.00 in0.0 mm 0.00 in0.0 mm
05:50 AM 58.5°F14.7°C 50.9°F10.5°C 76% 2.7 mph SW4.3 kmh SW 5.4 mph8.7 kmh 29.98 in1015.2 mb 0.00 in0.0 mm 0.00 in0.0 mm 0.00 in0.0 mm
05:45 AM 58.5°F14.7°C 51.3°F10.7°C 77% 2.8 mph SW4.5 kmh SW 5.4 mph8.7 kmh 29.97 in1014.9 mb 0.00 in0.0 mm 0.00 in0.0 mm 0.00 in0.0 mm
05:40 AM 58.5°F14.7°C 51.3°F10.7°C 77% 2.5 mph SW4.0 kmh SW 5.4 mph8.7 kmh 29.97 in1014.9 mb 0.00 in0.0 mm 0.00 in0.0 mm 0.00 in0.0 mm
05:35 AM 58.3°F14.6°C 51.4°F10.8°C 78% 2.4 mph SW3.9 kmh SW 4.5 mph7.2 kmh 29.97 in1014.9 mb 0.00 in0.0 mm 0.00 in0.0 mm 0.00 in0.0 mm
05:30 AM 57.9°F14.4°C 51.4°F10.8°C 79% 2.4 mph SW3.9 kmh SW 4.5 mph7.2 kmh 29.98 in1015.2 mb 0.00 in0.0 mm 0.00 in0.0 mm 0.00 in0.0 mm
05:25 AM 57.2°F14.0°C 50.7°F10.4°C 79% 2.1 mph SW3.4 kmh SW 4.5 mph7.2 kmh 29.97 in1014.9 mb 0.00 in0.0 mm 0.00 in0.0 mm 0.00 in0.0 mm
05:20 AM 56.5°F13.6°C 50.4°F10.2°C 80% 2.4 mph SW3.9 kmh SW 5.4 mph8.7 kmh 29.98 in1015.2 mb 0.00 in0.0 mm 0.00 in0.0 mm 0.00 in0.0 mm
05:15 AM 55.9°F13.3°C 49.9°F9.9°C 80% 2.5 mph SW4.0 kmh SW 5.4 mph8.7 kmh 29.98 in1015.2 mb 0.00 in0.0 mm 0.00 in0.0 mm 0.00 in0.0 mm
05:10 AM 55.6°F13.1°C 49.5°F9.7°C 80% 1.9 mph SW3.1 kmh SW 3.8 mph6.1 kmh 29.98 in1015.2 mb 0.00 in0.0 mm 0.00 in0.0 mm 0.00 in0.0 mm
05:05 AM 55.2°F12.9°C 49.5°F9.7°C 81% 1.7 mph SW2.7 kmh SW 3.8 mph6.1 kmh 29.98 in1015.2 mb 0.00 in0.0 mm 0.00 in0.0 mm 0.00 in0.0 mm
05:00 AM 55.0°F12.8°C 49.3°F9.6°C 81% 1.8 mph WSW2.9 kmh WSW 3.8 mph6.1 kmh 29.98 in1015.2 mb 0.00 in0.0 mm 0.00 in0.0 mm 0.00 in0.0 mm
04:55 AM 55.0°F12.8°C 49.3°F9.6°C 81% 2.0 mph WSW3.2 kmh WSW 4.5 mph7.2 kmh 29.98 in1015.2 mb 0.00 in0.0 mm 0.00 in0.0 mm 0.00 in0.0 mm
04:50 AM 54.9°F12.7°C 49.1°F9.5°C 81% 1.9 mph SW3.1 kmh SW 4.5 mph7.2 kmh 29.98 in1015.2 mb 0.00 in0.0 mm 0.00 in0.0 mm 0.00 in0.0 mm
04:45 AM 54.7°F12.6°C 49.0°F9.4°C 81% 2.0 mph SW3.2 kmh SW 3.8 mph6.1 kmh 29.98 in1015.2 mb 0.00 in0.0 mm 0.00 in0.0 mm 0.00 in0.0 mm
04:40 AM 54.7°F12.6°C 49.0°F9.4°C 81% 2.0 mph WSW3.2 kmh WSW 3.8 mph6.1 kmh 29.98 in1015.2 mb 0.00 in0.0 mm 0.00 in0.0 mm 0.00 in0.0 mm
04:35 AM 54.5°F12.5°C 48.8°F9.3°C 81% 1.3 mph WSW2.1 kmh WSW 3.8 mph6.1 kmh 29.98 in1015.2 mb 0.00 in0.0 mm 0.00 in0.0 mm 0.00 in0.0 mm
04:30 AM 54.5°F12.5°C 48.8°F9.3°C 81% 0.8 mph WSW1.3 kmh WSW 2.2 mph3.5 kmh 29.98 in1015.2 mb 0.00 in0.0 mm 0.00 in0.0 mm 0.00 in0.0 mm
04:25 AM 54.5°F12.5°C 48.8°F9.3°C 81% 1.0 mph SW1.6 kmh SW 2.2 mph3.5 kmh 29.98 in1015.2 mb 0.00 in0.0 mm 0.00 in0.0 mm 0.00 in0.0 mm
04:20 AM 54.3°F12.4°C 48.6°F9.2°C 81% 1.0 mph SSW1.6 kmh SSW 2.2 mph3.5 kmh 29.98 in1015.2 mb 0.00 in0.0 mm 0.00 in0.0 mm 0.00 in0.0 mm
04:15 AM 54.3°F12.4°C 48.3°F9.1°C 80% 0.8 mph S1.3 kmh S 2.2 mph3.5 kmh 29.98 in1015.2 mb 0.00 in0.0 mm 0.00 in0.0 mm 0.00 in0.0 mm
04:10 AM 54.3°F12.4°C 48.3°F9.1°C 80% 1.3 mph SW2.1 kmh SW 3.1 mph5.0 kmh 29.98 in1015.2 mb 0.00 in0.0 mm 0.00 in0.0 mm 0.00 in0.0 mm
04:05 AM 54.3°F12.4°C 48.3°F9.1°C 80% 1.9 mph WSW3.1 kmh WSW 4.5 mph7.2 kmh 29.98 in1015.2 mb 0.00 in0.0 mm 0.00 in0.0 mm 0.00 in0.0 mm
04:00 AM 54.3°F12.4°C 48.3°F9.1°C 80% 2.2 mph WSW3.5 kmh WSW 4.5 mph7.2 kmh 29.98 in1015.2 mb 0.00 in0.0 mm 0.00 in0.0 mm 0.00 in0.0 mm
03:55 AM 54.3°F12.4°C 47.9°F8.8°C 79% 2.7 mph WSW4.3 kmh WSW 6.0 mph9.7 kmh 29.99 in1015.6 mb 0.00 in0.0 mm 0.00 in0.0 mm 0.00 in0.0 mm
03:50 AM 54.3°F12.4°C 47.9°F8.8°C 79% 2.3 mph WSW3.7 kmh WSW 6.0 mph9.7 kmh 29.98 in1015.2 mb 0.00 in0.0 mm 0.00 in0.0 mm 0.00 in0.0 mm
03:45 AM 54.7°F12.6°C 48.3°F9.1°C 79% 0.8 mph W1.3 kmh W 3.8 mph6.1 kmh 29.98 in1015.2 mb 0.00 in0.0 mm 0.00 in0.0 mm 0.00 in0.0 mm
03:40 AM 54.9°F12.7°C 48.5°F9.2°C 79% 0.1 mph WNW0.2 kmh WNW 1.6 mph2.6 kmh 29.98 in1015.2 mb 0.00 in0.0 mm 0.00 in0.0 mm 0.00 in0.0 mm
03:35 AM 55.0°F12.8°C 48.6°F9.2°C 79% 0.5 mph S0.8 kmh S 3.8 mph6.1 kmh 29.99 in1015.6 mb 0.00 in0.0 mm 0.00 in0.0 mm 0.00 in0.0 mm
03:30 AM 55.2°F12.9°C 48.8°F9.3°C 79% 1.3 mph SE2.1 kmh SE 3.8 mph6.1 kmh 29.98 in1015.2 mb 0.00 in0.0 mm 0.00 in0.0 mm 0.00 in0.0 mm
03:25 AM 55.2°F12.9°C 48.8°F9.3°C 79% 1.6 mph ESE2.6 kmh ESE 3.8 mph6.1 kmh 29.98 in1015.2 mb 0.00 in0.0 mm 0.00 in0.0 mm 0.00 in0.0 mm
03:20 AM 55.2°F12.9°C 48.5°F9.2°C 78% 1.7 mph E2.7 kmh E 3.8 mph6.1 kmh 29.98 in1015.2 mb 0.00 in0.0 mm 0.00 in0.0 mm 0.00 in0.0 mm
03:15 AM 55.4°F13.0°C 48.3°F9.1°C 77% 1.8 mph E2.9 kmh E 4.5 mph7.2 kmh 29.99 in1015.6 mb 0.00 in0.0 mm 0.00 in0.0 mm 0.00 in0.0 mm
03:10 AM 55.4°F13.0°C 48.3°F9.1°C 77% 2.0 mph E3.2 kmh E 4.5 mph7.2 kmh 29.99 in1015.6 mb 0.00 in0.0 mm 0.00 in0.0 mm 0.00 in0.0 mm
03:05 AM 55.4°F13.0°C 48.3°F9.1°C 77% 1.9 mph ESE3.1 kmh ESE 4.5 mph7.2 kmh 29.99 in1015.6 mb 0.00 in0.0 mm 0.00 in0.0 mm 0.00 in0.0 mm
03:00 AM 55.4°F13.0°C 48.0°F8.9°C 76% 1.6 mph SE2.6 kmh SE 3.8 mph6.1 kmh 29.99 in1015.6 mb 0.00 in0.0 mm 0.00 in0.0 mm 0.00 in0.0 mm
02:55 AM 55.8°F13.2°C 48.3°F9.1°C 76% 1.8 mph SE2.9 kmh SE 4.5 mph7.2 kmh 29.99 in1015.6 mb 0.00 in0.0 mm 0.00 in0.0 mm 0.00 in0.0 mm
02:50 AM 55.9°F13.3°C 48.5°F9.2°C 76% 2.0 mph SE3.2 kmh SE 4.5 mph7.2 kmh 29.99 in1015.6 mb 0.00 in0.0 mm 0.00 in0.0 mm 0.00 in0.0 mm
02:45 AM 56.3°F13.5°C 48.8°F9.3°C 76% 2.0 mph SE3.2 kmh SE 3.8 mph6.1 kmh 29.99 in1015.6 mb 0.00 in0.0 mm 0.00 in0.0 mm 0.00 in0.0 mm
02:40 AM 56.5°F13.6°C 49.0°F9.4°C 76% 2.0 mph SE3.2 kmh SE 3.8 mph6.1 kmh 29.99 in1015.6 mb 0.00 in0.0 mm 0.00 in0.0 mm 0.00 in0.0 mm
02:35 AM 56.8°F13.8°C 49.0°F9.4°C 75% 2.0 mph SE3.2 kmh SE 5.4 mph8.7 kmh 30.00 in1015.9 mb 0.00 in0.0 mm 0.00 in0.0 mm 0.00 in0.0 mm
02:30 AM 57.0°F13.9°C 49.2°F9.6°C 75% 2.2 mph SE3.5 kmh SE 5.4 mph8.7 kmh 30.00 in1015.9 mb 0.00 in0.0 mm 0.00 in0.0 mm 0.00 in0.0 mm
02:25 AM 57.2°F14.0°C 49.0°F9.4°C 74% 2.5 mph ESE4.0 kmh ESE 5.4 mph8.7 kmh 30.00 in1015.9 mb 0.00 in0.0 mm 0.00 in0.0 mm 0.00 in0.0 mm
02:20 AM 57.2°F14.0°C 49.0°F9.4°C 74% 2.4 mph ESE3.9 kmh ESE 5.4 mph8.7 kmh 30.00 in1015.9 mb 0.00 in0.0 mm 0.00 in0.0 mm 0.00 in0.0 mm
02:15 AM 57.0°F13.9°C 49.5°F9.7°C 76% 2.4 mph E3.9 kmh E 5.4 mph8.7 kmh 30.00 in1015.9 mb 0.00 in0.0 mm 0.00 in0.0 mm 0.00 in0.0 mm
02:10 AM 56.1°F13.4°C 48.7°F9.3°C 76% 2.4 mph SE3.9 kmh SE 5.4 mph8.7 kmh 30.00 in1015.9 mb 0.00 in0.0 mm 0.00 in0.0 mm 0.00 in0.0 mm
02:05 AM 55.9°F13.3°C 48.5°F9.2°C 76% 2.4 mph SE3.9 kmh SE 5.4 mph8.7 kmh 30.00 in1015.9 mb 0.00 in0.0 mm 0.00 in0.0 mm 0.00 in0.0 mm
02:00 AM 55.2°F12.9°C 47.8°F8.8°C 76% 2.3 mph E3.7 kmh E 4.5 mph7.2 kmh 30.01 in1016.3 mb 0.00 in0.0 mm 0.00 in0.0 mm 0.00 in0.0 mm
01:55 AM 54.5°F12.5°C 46.7°F8.2°C 75% 2.0 mph ESE3.2 kmh ESE 4.5 mph7.2 kmh 30.01 in1016.3 mb 0.00 in0.0 mm 0.00 in0.0 mm 0.00 in0.0 mm
01:50 AM 54.1°F12.3°C 46.0°F7.8°C 74% 1.9 mph SE3.1 kmh SE 3.8 mph6.1 kmh 30.01 in1016.3 mb 0.00 in0.0 mm 0.00 in0.0 mm 0.00 in0.0 mm
01:45 AM 54.1°F12.3°C 46.0°F7.8°C 74% 2.1 mph SE3.4 kmh SE 3.8 mph6.1 kmh 30.01 in1016.3 mb 0.00 in0.0 mm 0.00 in0.0 mm 0.00 in0.0 mm
01:40 AM 54.1°F12.3°C 45.7°F7.6°C 73% 2.0 mph ESE3.2 kmh ESE 3.8 mph6.1 kmh 30.01 in1016.3 mb 0.00 in0.0 mm 0.00 in0.0 mm 0.00 in0.0 mm
01:35 AM 54.3°F12.4°C 45.5°F7.5°C 72% 1.6 mph ESE2.6 kmh ESE 3.8 mph6.1 kmh 30.01 in1016.3 mb 0.00 in0.0 mm 0.00 in0.0 mm 0.00 in0.0 mm
01:30 AM 54.9°F12.7°C 46.0°F7.8°C 72% 1.0 mph SE1.6 kmh SE 2.2 mph3.5 kmh 30.02 in1016.6 mb 0.00 in0.0 mm 0.00 in0.0 mm 0.00 in0.0 mm
01:25 AM 55.2°F12.9°C 46.3°F7.9°C 72% 0.3 mph ESE0.5 kmh ESE 1.6 mph2.6 kmh 30.02 in1016.6 mb 0.00 in0.0 mm 0.00 in0.0 mm 0.00 in0.0 mm
01:20 AM 55.6°F13.1°C 46.3°F7.9°C 71% 0.1 mph ESE0.2 kmh ESE 1.6 mph2.6 kmh 30.02 in1016.6 mb 0.00 in0.0 mm 0.00 in0.0 mm 0.00 in0.0 mm
01:15 AM 55.9°F13.3°C 46.7°F8.2°C 71% Calm Calm 1.6 mph2.6 kmh 30.02 in1016.6 mb 0.00 in0.0 mm 0.00 in0.0 mm 0.00 in0.0 mm
01:10 AM 56.3°F13.5°C 46.6°F8.1°C 70% 0.2 mph W0.3 kmh W 1.6 mph2.6 kmh 30.02 in1016.6 mb 0.00 in0.0 mm 0.00 in0.0 mm 0.00 in0.0 mm
01:05 AM 56.7°F13.7°C 47.0°F8.3°C 70% 0.2 mph NW0.3 kmh NW 1.6 mph2.6 kmh 30.02 in1016.6 mb 0.00 in0.0 mm 0.00 in0.0 mm 0.00 in0.0 mm
01:00 AM 56.8°F13.8°C 47.2°F8.4°C 70% 0.3 mph NW0.5 kmh NW 1.6 mph2.6 kmh 30.02 in1016.6 mb 0.00 in0.0 mm 0.00 in0.0 mm 0.00 in0.0 mm
12:55 AM 57.0°F13.9°C 47.3°F8.5°C 70% 0.6 mph WNW1.0 kmh WNW 1.6 mph2.6 kmh 30.02 in1016.6 mb 0.00 in0.0 mm 0.00 in0.0 mm 0.00 in0.0 mm
12:50 AM 57.0°F13.9°C 47.3°F8.5°C 70% 1.2 mph W1.9 kmh W 3.1 mph5.0 kmh 30.02 in1016.6 mb 0.00 in0.0 mm 0.00 in0.0 mm 0.00 in0.0 mm
12:45 AM 57.2°F14.0°C 46.7°F8.2°C 68% 1.5 mph W2.4 kmh W 3.1 mph5.0 kmh 30.02 in1016.6 mb 0.00 in0.0 mm 0.00 in0.0 mm 0.00 in0.0 mm
12:40 AM 57.7°F14.3°C 47.2°F8.4°C 68% 0.8 mph WSW1.3 kmh WSW 3.1 mph5.0 kmh 30.02 in1016.6 mb 0.00 in0.0 mm 0.00 in0.0 mm 0.00 in0.0 mm
12:35 AM 57.7°F14.3°C 47.2°F8.4°C 68% 1.2 mph SW1.9 kmh SW 3.8 mph6.1 kmh 30.02 in1016.6 mb 0.00 in0.0 mm 0.00 in0.0 mm 0.00 in0.0 mm
12:30 AM 57.7°F14.3°C 47.2°F8.4°C 68% 1.5 mph SW2.4 kmh SW 3.8 mph6.1 kmh 30.02 in1016.6 mb 0.00 in0.0 mm 0.00 in0.0 mm 0.00 in0.0 mm
12:25 AM 57.9°F14.4°C 47.4°F8.6°C 68% 1.8 mph SW2.9 kmh SW 3.8 mph6.1 kmh 30.02 in1016.6 mb 0.00 in0.0 mm 0.00 in0.0 mm 0.00 in0.0 mm
12:20 AM 57.7°F14.3°C 47.6°F8.7°C 69% 2.4 mph SW3.9 kmh SW 3.8 mph6.1 kmh 30.02 in1016.6 mb 0.00 in0.0 mm 0.00 in0.0 mm 0.00 in0.0 mm
12:15 AM 57.7°F14.3°C 47.2°F8.4°C 68% 2.3 mph SW3.7 kmh SW 3.8 mph6.1 kmh 30.02 in1016.6 mb 0.00 in0.0 mm 0.00 in0.0 mm 0.00 in0.0 mm
12:10 AM 57.7°F14.3°C 47.2°F8.4°C 68% 2.5 mph WSW4.0 kmh WSW 3.8 mph6.1 kmh 30.02 in1016.6 mb 0.00 in0.0 mm 0.00 in0.0 mm 0.00 in0.0 mm
12:05 AM 57.4°F14.1°C 46.9°F8.3°C 68% 1.9 mph WSW3.1 kmh WSW 3.8 mph6.1 kmh 30.02 in1016.6 mb 0.00 in0.0 mm 0.00 in0.0 mm 0.00 in0.0 mm
12:00 AM 57.7°F14.3°C 46.9°F8.3°C 67% 0.7 mph W1.1 kmh W 3.1 mph5.0 kmh 30.02 in1016.6 mb 0.00 in0.0 mm 0.00 in0.0 mm 0.00 in0.0 mm